sensor_id;sensor_type;location;lat;lon;timestamp;temperature;humidity
7600;DHT22;3841;49.442;11.126;2022-07-29T00:02:22;20.40;91.60
7600;DHT22;3841;49.442;11.126;2022-07-29T00:04:49;20.50;91.80
7600;DHT22;3841;49.442;11.126;2022-07-29T00:07:15;20.50;91.40
7600;DHT22;3841;49.442;11.126;2022-07-29T00:09:42;20.50;91.50
7600;DHT22;3841;49.442;11.126;2022-07-29T00:12:08;20.50;91.50
7600;DHT22;3841;49.442;11.126;2022-07-29T00:14:37;20.40;92.00
7600;DHT22;3841;49.442;11.126;2022-07-29T00:17:04;20.40;91.80
7600;DHT22;3841;49.442;11.126;2022-07-29T00:19:32;20.40;91.70
7600;DHT22;3841;49.442;11.126;2022-07-29T00:21:59;20.40;91.80
7600;DHT22;3841;49.442;11.126;2022-07-29T00:24:26;20.30;91.60
7600;DHT22;3841;49.442;11.126;2022-07-29T00:26:52;20.30;92.00
7600;DHT22;3841;49.442;11.126;2022-07-29T00:29:19;20.30;92.10
7600;DHT22;3841;49.442;11.126;2022-07-29T00:31:46;20.20;92.00
7600;DHT22;3841;49.442;11.126;2022-07-29T00:34:12;20.20;92.00
7600;DHT22;3841;49.442;11.126;2022-07-29T00:36:54;20.20;91.60
7600;DHT22;3841;49.442;11.126;2022-07-29T00:39:21;20.30;91.80
7600;DHT22;3841;49.442;11.126;2022-07-29T00:41:47;20.20;92.00
7600;DHT22;3841;49.442;11.126;2022-07-29T00:44:14;20.20;92.30
7600;DHT22;3841;49.442;11.126;2022-07-29T00:46:41;20.20;92.40
7600;DHT22;3841;49.442;11.126;2022-07-29T00:49:08;20.20;92.50
7600;DHT22;3841;49.442;11.126;2022-07-29T00:51:34;20.20;92.60
7600;DHT22;3841;49.442;11.126;2022-07-29T00:54:03;20.20;92.60
7600;DHT22;3841;49.442;11.126;2022-07-29T00:56:30;20.20;92.80
7600;DHT22;3841;49.442;11.126;2022-07-29T00:58:57;20.10;92.90
7600;DHT22;3841;49.442;11.126;2022-07-29T01:01:23;20.10;92.30
7600;DHT22;3841;49.442;11.126;2022-07-29T01:03:50;20.20;92.10
7600;DHT22;3841;49.442;11.126;2022-07-29T01:06:19;20.20;92.80
7600;DHT22;3841;49.442;11.126;2022-07-29T01:08:46;20.10;93.00
7600;DHT22;3841;49.442;11.126;2022-07-29T01:11:16;20.10;93.00
7600;DHT22;3841;49.442;11.126;2022-07-29T01:13:43;20.10;92.60
7600;DHT22;3841;49.442;11.126;2022-07-29T01:16:12;20.10;92.50
7600;DHT22;3841;49.442;11.126;2022-07-29T01:18:41;20.10;92.50
7600;DHT22;3841;49.442;11.126;2022-07-29T01:21:19;20.00;92.60
7600;DHT22;3841;49.442;11.126;2022-07-29T01:23:52;20.10;92.40
7600;DHT22;3841;49.442;11.126;2022-07-29T01:26:35;20.10;92.80
7600;DHT22;3841;49.442;11.126;2022-07-29T01:29:08;20.10;92.80
7600;DHT22;3841;49.442;11.126;2022-07-29T01:31:39;20.10;92.50
7600;DHT22;3841;49.442;11.126;2022-07-29T01:34:08;20.10;92.60
7600;DHT22;3841;49.442;11.126;2022-07-29T01:36:37;20.10;92.70
7600;DHT22;3841;49.442;11.126;2022-07-29T01:39:08;20.10;92.90
7600;DHT22;3841;49.442;11.126;2022-07-29T01:41:37;20.10;92.50
7600;DHT22;3841;49.442;11.126;2022-07-29T01:44:10;20.00;93.00
7600;DHT22;3841;49.442;11.126;2022-07-29T01:46:38;20.00;93.50
7600;DHT22;3841;49.442;11.126;2022-07-29T01:49:07;20.00;93.60
7600;DHT22;3841;49.442;11.126;2022-07-29T01:51:35;19.90;93.60
7600;DHT22;3841;49.442;11.126;2022-07-29T01:54:07;19.90;94.20
7600;DHT22;3841;49.442;11.126;2022-07-29T01:56:35;19.90;94.50
7600;DHT22;3841;49.442;11.126;2022-07-29T01:59:03;19.80;94.70
7600;DHT22;3841;49.442;11.126;2022-07-29T02:01:32;19.70;94.90
7600;DHT22;3841;49.442;11.126;2022-07-29T02:03:59;19.70;95.20
7600;DHT22;3841;49.442;11.126;2022-07-29T02:06:28;19.60;95.00
7600;DHT22;3841;49.442;11.126;2022-07-29T02:08:56;19.50;94.90
7600;DHT22;3841;49.442;11.126;2022-07-29T02:11:24;19.50;95.90
7600;DHT22;3841;49.442;11.126;2022-07-29T02:13:51;19.50;96.00
7600;DHT22;3841;49.442;11.126;2022-07-29T02:16:18;19.40;96.10
7600;DHT22;3841;49.442;11.126;2022-07-29T02:18:49;19.40;96.00
7600;DHT22;3841;49.442;11.126;2022-07-29T02:21:16;19.40;96.50
7600;DHT22;3841;49.442;11.126;2022-07-29T02:23:46;19.30;97.00
7600;DHT22;3841;49.442;11.126;2022-07-29T02:26:12;19.30;97.40
7600;DHT22;3841;49.442;11.126;2022-07-29T02:28:39;19.30;97.40
7600;DHT22;3841;49.442;11.126;2022-07-29T02:31:06;19.20;97.70
7600;DHT22;3841;49.442;11.126;2022-07-29T02:33:33;19.10;98.10
7600;DHT22;3841;49.442;11.126;2022-07-29T02:36:02;19.10;98.20
7600;DHT22;3841;49.442;11.126;2022-07-29T02:38:29;19.00;98.30
7600;DHT22;3841;49.442;11.126;2022-07-29T02:41:16;19.00;98.40
7600;DHT22;3841;49.442;11.126;2022-07-29T02:43:43;19.00;98.40
7600;DHT22;3841;49.442;11.126;2022-07-29T02:46:12;19.00;97.90
7600;DHT22;3841;49.442;11.126;2022-07-29T02:48:41;19.00;97.80
7600;DHT22;3841;49.442;11.126;2022-07-29T02:51:12;19.00;98.40
7600;DHT22;3841;49.442;11.126;2022-07-29T02:53:39;18.90;99.00
7600;DHT22;3841;49.442;11.126;2022-07-29T02:56:08;18.90;99.20
7600;DHT22;3841;49.442;11.126;2022-07-29T02:58:38;18.90;99.40
7600;DHT22;3841;49.442;11.126;2022-07-29T03:01:07;18.90;99.40
7600;DHT22;3841;49.442;11.126;2022-07-29T03:03:35;18.80;99.60
7600;DHT22;3841;49.442;11.126;2022-07-29T03:06:03;18.80;99.90
7600;DHT22;3841;49.442;11.126;2022-07-29T03:08:31;18.80;99.90
7600;DHT22;3841;49.442;11.126;2022-07-29T03:10:58;18.80;99.90
7600;DHT22;3841;49.442;11.126;2022-07-29T03:13:25;18.80;99.90
7600;DHT22;3841;49.442;11.126;2022-07-29T03:15:53;18.80;99.90
7600;DHT22;3841;49.442;11.126;2022-07-29T03:18:21;18.80;99.90
7600;DHT22;3841;49.442;11.126;2022-07-29T03:20:47;18.70;99.90
7600;DHT22;3841;49.442;11.126;2022-07-29T03:23:18;18.70;99.90
7600;DHT22;3841;49.442;11.126;2022-07-29T03:25:46;18.80;99.90
7600;DHT22;3841;49.442;11.126;2022-07-29T03:28:13;18.70;99.90
7600;DHT22;3841;49.442;11.126;2022-07-29T03:30:40;18.70;99.90
7600;DHT22;3841;49.442;11.126;2022-07-29T03:33:06;18.70;99.90
7600;DHT22;3841;49.442;11.126;2022-07-29T03:35:33;18.70;99.90
7600;DHT22;3841;49.442;11.126;2022-07-29T03:38:00;18.80;99.90
7600;DHT22;3841;49.442;11.126;2022-07-29T03:40:28;18.70;99.90
7600;DHT22;3841;49.442;11.126;2022-07-29T03:42:59;18.70;99.90
7600;DHT22;3841;49.442;11.126;2022-07-29T03:45:26;18.70;99.90
7600;DHT22;3841;49.442;11.126;2022-07-29T03:47:55;18.70;99.90
7600;DHT22;3841;49.442;11.126;2022-07-29T03:50:22;18.70;99.90
7600;DHT22;3841;49.442;11.126;2022-07-29T03:52:49;18.70;99.90
7600;DHT22;3841;49.442;11.126;2022-07-29T03:55:16;18.70;99.90
7600;DHT22;3841;49.442;11.126;2022-07-29T03:57:43;18.60;99.90
7600;DHT22;3841;49.442;11.126;2022-07-29T04:00:12;18.60;99.90
7600;DHT22;3841;49.442;11.126;2022-07-29T04:02:40;18.50;99.90
7600;DHT22;3841;49.442;11.126;2022-07-29T04:05:11;18.50;99.90
7600;DHT22;3841;49.442;11.126;2022-07-29T04:07:38;18.40;99.90
7600;DHT22;3841;49.442;11.126;2022-07-29T04:10:05;18.30;99.90
7600;DHT22;3841;49.442;11.126;2022-07-29T04:12:32;18.20;99.90
7600;DHT22;3841;49.442;11.126;2022-07-29T04:14:59;18.20;99.90
7600;DHT22;3841;49.442;11.126;2022-07-29T04:17:27;18.20;99.90
7600;DHT22;3841;49.442;11.126;2022-07-29T04:19:54;18.10;99.90
7600;DHT22;3841;49.442;11.126;2022-07-29T04:22:22;18.10;99.90
7600;DHT22;3841;49.442;11.126;2022-07-29T04:24:49;18.10;99.90
7600;DHT22;3841;49.442;11.126;2022-07-29T04:27:15;18.10;99.90
7600;DHT22;3841;49.442;11.126;2022-07-29T04:29:42;18.10;99.90
7600;DHT22;3841;49.442;11.126;2022-07-29T04:32:13;18.20;99.90
7600;DHT22;3841;49.442;11.126;2022-07-29T04:34:41;18.20;99.90
7600;DHT22;3841;49.442;11.126;2022-07-29T04:37:08;18.20;99.90
7600;DHT22;3841;49.442;11.126;2022-07-29T04:39:34;18.20;99.90
7600;DHT22;3841;49.442;11.126;2022-07-29T04:42:01;18.20;99.90
7600;DHT22;3841;49.442;11.126;2022-07-29T04:44:27;18.30;99.90
7600;DHT22;3841;49.442;11.126;2022-07-29T04:46:55;18.30;99.90
7600;DHT22;3841;49.442;11.126;2022-07-29T04:49:21;18.30;99.90
7600;DHT22;3841;49.442;11.126;2022-07-29T04:51:49;18.20;99.90
7600;DHT22;3841;49.442;11.126;2022-07-29T04:54:16;18.20;99.90
7600;DHT22;3841;49.442;11.126;2022-07-29T04:56:43;18.10;99.90
7600;DHT22;3841;49.442;11.126;2022-07-29T04:59:11;18.10;99.90
7600;DHT22;3841;49.442;11.126;2022-07-29T05:01:38;18.10;99.90
7600;DHT22;3841;49.442;11.126;2022-07-29T05:04:04;18.00;99.90
7600;DHT22;3841;49.442;11.126;2022-07-29T05:06:31;18.00;99.90
7600;DHT22;3841;49.442;11.126;2022-07-29T05:08:59;17.90;99.90
7600;DHT22;3841;49.442;11.126;2022-07-29T05:11:26;17.80;99.90
7600;DHT22;3841;49.442;11.126;2022-07-29T05:13:53;17.80;99.90
7600;DHT22;3841;49.442;11.126;2022-07-29T05:16:20;18.00;99.90
7600;DHT22;3841;49.442;11.126;2022-07-29T05:18:47;18.20;99.90
7600;DHT22;3841;49.442;11.126;2022-07-29T05:21:14;18.30;99.90
7600;DHT22;3841;49.442;11.126;2022-07-29T05:23:40;18.40;99.90
7600;DHT22;3841;49.442;11.126;2022-07-29T05:26:08;18.50;99.90
7600;DHT22;3841;49.442;11.126;2022-07-29T05:28:35;18.60;99.90
7600;DHT22;3841;49.442;11.126;2022-07-29T05:31:02;18.70;99.90
7600;DHT22;3841;49.442;11.126;2022-07-29T05:33:28;18.80;99.90
7600;DHT22;3841;49.442;11.126;2022-07-29T05:35:55;18.90;99.90
7600;DHT22;3841;49.442;11.126;2022-07-29T05:38:22;18.90;99.90
7600;DHT22;3841;49.442;11.126;2022-07-29T05:40:49;19.00;99.90
7600;DHT22;3841;49.442;11.126;2022-07-29T05:43:17;19.10;99.90
7600;DHT22;3841;49.442;11.126;2022-07-29T05:45:43;19.20;99.90
7600;DHT22;3841;49.442;11.126;2022-07-29T05:48:10;19.30;99.90
7600;DHT22;3841;49.442;11.126;2022-07-29T05:50:37;19.40;99.90
7600;DHT22;3841;49.442;11.126;2022-07-29T05:53:04;19.90;99.90
7600;DHT22;3841;49.442;11.126;2022-07-29T05:55:30;20.70;99.90
7600;DHT22;3841;49.442;11.126;2022-07-29T05:57:57;21.50;99.90
7600;DHT22;3841;49.442;11.126;2022-07-29T06:00:25;22.10;99.90
7600;DHT22;3841;49.442;11.126;2022-07-29T06:02:51;22.70;99.90
7600;DHT22;3841;49.442;11.126;2022-07-29T06:05:18;23.40;99.90
7600;DHT22;3841;49.442;11.126;2022-07-29T06:07:45;23.90;99.90
7600;DHT22;3841;49.442;11.126;2022-07-29T06:10:12;24.30;98.20
7600;DHT22;3841;49.442;11.126;2022-07-29T06:12:38;24.80;96.30
7600;DHT22;3841;49.442;11.126;2022-07-29T06:15:06;25.20;94.50
7600;DHT22;3841;49.442;11.126;2022-07-29T06:17:35;25.50;93.10
7600;DHT22;3841;49.442;11.126;2022-07-29T06:20:01;25.80;91.80
7600;DHT22;3841;49.442;11.126;2022-07-29T06:22:29;26.10;90.80
7600;DHT22;3841;49.442;11.126;2022-07-29T06:24:56;26.30;88.50
7600;DHT22;3841;49.442;11.126;2022-07-29T06:27:23;26.50;87.50
7600;DHT22;3841;49.442;11.126;2022-07-29T06:29:49;26.90;85.90
7600;DHT22;3841;49.442;11.126;2022-07-29T06:32:16;27.00;84.50
7600;DHT22;3841;49.442;11.126;2022-07-29T06:34:44;27.10;83.40
7600;DHT22;3841;49.442;11.126;2022-07-29T06:37:10;27.40;81.20
7600;DHT22;3841;49.442;11.126;2022-07-29T06:39:37;27.30;80.60
7600;DHT22;3841;49.442;11.126;2022-07-29T06:42:05;27.30;80.10
7600;DHT22;3841;49.442;11.126;2022-07-29T06:44:32;27.20;79.50
7600;DHT22;3841;49.442;11.126;2022-07-29T06:47:00;27.30;79.10
7600;DHT22;3841;49.442;11.126;2022-07-29T06:49:26;27.20;78.50
7600;DHT22;3841;49.442;11.126;2022-07-29T06:51:54;27.10;78.30
7600;DHT22;3841;49.442;11.126;2022-07-29T06:54:21;26.80;79.40
7600;DHT22;3841;49.442;11.126;2022-07-29T06:56:48;26.80;79.70
7600;DHT22;3841;49.442;11.126;2022-07-29T06:59:14;26.90;79.60
7600;DHT22;3841;49.442;11.126;2022-07-29T07:01:41;27.10;78.50
7600;DHT22;3841;49.442;11.126;2022-07-29T07:04:08;27.40;77.70
7600;DHT22;3841;49.442;11.126;2022-07-29T07:06:35;27.40;77.20
7600;DHT22;3841;49.442;11.126;2022-07-29T07:09:09;27.40;77.90
7600;DHT22;3841;49.442;11.126;2022-07-29T07:11:35;27.20;77.50
7600;DHT22;3841;49.442;11.126;2022-07-29T07:14:02;27.10;77.50
7600;DHT22;3841;49.442;11.126;2022-07-29T07:16:29;26.90;77.10
7600;DHT22;3841;49.442;11.126;2022-07-29T07:18:57;27.00;77.60
7600;DHT22;3841;49.442;11.126;2022-07-29T07:21:23;27.00;77.40
7600;DHT22;3841;49.442;11.126;2022-07-29T07:23:50;26.70;77.70
7600;DHT22;3841;49.442;11.126;2022-07-29T07:26:18;26.60;78.00
7600;DHT22;3841;49.442;11.126;2022-07-29T07:28:44;26.50;80.10
7600;DHT22;3841;49.442;11.126;2022-07-29T07:31:11;26.50;80.90
7600;DHT22;3841;49.442;11.126;2022-07-29T07:33:38;26.40;80.90
7600;DHT22;3841;49.442;11.126;2022-07-29T07:36:04;26.70;79.00
7600;DHT22;3841;49.442;11.126;2022-07-29T07:38:31;26.60;81.20
7600;DHT22;3841;49.442;11.126;2022-07-29T07:40:58;26.60;80.00
7600;DHT22;3841;49.442;11.126;2022-07-29T07:43:26;26.60;78.60
7600;DHT22;3841;49.442;11.126;2022-07-29T07:45:52;26.40;79.40
7600;DHT22;3841;49.442;11.126;2022-07-29T07:48:19;26.60;80.30
7600;DHT22;3841;49.442;11.126;2022-07-29T07:50:46;26.90;79.50
7600;DHT22;3841;49.442;11.126;2022-07-29T07:53:14;27.40;78.30
7600;DHT22;3841;49.442;11.126;2022-07-29T07:55:41;27.50;77.90
7600;DHT22;3841;49.442;11.126;2022-07-29T07:58:08;27.60;78.40
7600;DHT22;3841;49.442;11.126;2022-07-29T08:00:36;27.60;76.90
7600;DHT22;3841;49.442;11.126;2022-07-29T08:03:03;27.50;77.30
7600;DHT22;3841;49.442;11.126;2022-07-29T08:05:29;27.20;77.40
7600;DHT22;3841;49.442;11.126;2022-07-29T08:07:56;26.80;79.20
7600;DHT22;3841;49.442;11.126;2022-07-29T08:10:23;26.50;79.80
7600;DHT22;3841;49.442;11.126;2022-07-29T08:13:07;26.30;81.00
7600;DHT22;3841;49.442;11.126;2022-07-29T08:15:40;26.20;80.80
7600;DHT22;3841;49.442;11.126;2022-07-29T08:18:08;26.30;81.20
7600;DHT22;3841;49.442;11.126;2022-07-29T08:20:35;26.30;81.90
7600;DHT22;3841;49.442;11.126;2022-07-29T08:23:03;26.30;81.80
7600;DHT22;3841;49.442;11.126;2022-07-29T08:25:31;26.30;81.50
7600;DHT22;3841;49.442;11.126;2022-07-29T08:27:59;26.20;81.30
7600;DHT22;3841;49.442;11.126;2022-07-29T08:30:25;26.10;81.10
7600;DHT22;3841;49.442;11.126;2022-07-29T08:32:54;26.10;81.10
7600;DHT22;3841;49.442;11.126;2022-07-29T08:35:21;26.30;80.50
7600;DHT22;3841;49.442;11.126;2022-07-29T08:37:47;26.30;81.20
7600;DHT22;3841;49.442;11.126;2022-07-29T08:40:14;26.30;82.00
7600;DHT22;3841;49.442;11.126;2022-07-29T08:42:41;26.30;80.70
7600;DHT22;3841;49.442;11.126;2022-07-29T08:45:08;26.40;80.60
7600;DHT22;3841;49.442;11.126;2022-07-29T08:47:34;26.30;81.90
7600;DHT22;3841;49.442;11.126;2022-07-29T08:50:05;26.20;81.20
7600;DHT22;3841;49.442;11.126;2022-07-29T08:52:32;26.20;82.10
7600;DHT22;3841;49.442;11.126;2022-07-29T08:55:02;26.00;83.30
7600;DHT22;3841;49.442;11.126;2022-07-29T08:57:29;26.00;83.30
7600;DHT22;3841;49.442;11.126;2022-07-29T08:59:56;26.00;84.20
7600;DHT22;3841;49.442;11.126;2022-07-29T09:02:23;26.10;84.10
7600;DHT22;3841;49.442;11.126;2022-07-29T09:04:53;26.20;84.60
7600;DHT22;3841;49.442;11.126;2022-07-29T09:07:22;26.40;84.90
7600;DHT22;3841;49.442;11.126;2022-07-29T09:09:49;26.60;85.10
7600;DHT22;3841;49.442;11.126;2022-07-29T09:12:16;26.70;85.10
7600;DHT22;3841;49.442;11.126;2022-07-29T09:14:43;26.90;85.60
7600;DHT22;3841;49.442;11.126;2022-07-29T09:17:09;27.00;85.30
7600;DHT22;3841;49.442;11.126;2022-07-29T09:19:36;27.20;84.90
7600;DHT22;3841;49.442;11.126;2022-07-29T09:22:04;27.50;83.30
7600;DHT22;3841;49.442;11.126;2022-07-29T09:24:38;27.70;83.00
7600;DHT22;3841;49.442;11.126;2022-07-29T09:27:17;27.80;83.20
7600;DHT22;3841;49.442;11.126;2022-07-29T09:29:45;28.00;81.50
7600;DHT22;3841;49.442;11.126;2022-07-29T09:32:16;28.10;81.10
7600;DHT22;3841;49.442;11.126;2022-07-29T09:34:48;28.20;81.20
7600;DHT22;3841;49.442;11.126;2022-07-29T09:37:25;28.20;79.40
7600;DHT22;3841;49.442;11.126;2022-07-29T09:39:53;28.10;78.60
7600;DHT22;3841;49.442;11.126;2022-07-29T09:42:27;28.20;78.60
7600;DHT22;3841;49.442;11.126;2022-07-29T09:44:54;28.20;78.30
7600;DHT22;3841;49.442;11.126;2022-07-29T09:47:21;28.40;78.50
7600;DHT22;3841;49.442;11.126;2022-07-29T09:49:52;28.50;76.50
7600;DHT22;3841;49.442;11.126;2022-07-29T09:52:19;28.50;76.10
7600;DHT22;3841;49.442;11.126;2022-07-29T09:54:46;28.50;76.50
7600;DHT22;3841;49.442;11.126;2022-07-29T09:57:24;28.50;76.30
7600;DHT22;3841;49.442;11.126;2022-07-29T09:59:55;28.40;77.10
7600;DHT22;3841;49.442;11.126;2022-07-29T10:02:22;28.50;77.40
7600;DHT22;3841;49.442;11.126;2022-07-29T10:04:49;28.30;77.60
7600;DHT22;3841;49.442;11.126;2022-07-29T10:07:15;28.10;79.70
7600;DHT22;3841;49.442;11.126;2022-07-29T10:09:50;28.00;80.50
7600;DHT22;3841;49.442;11.126;2022-07-29T10:12:20;28.00;80.50
7600;DHT22;3841;49.442;11.126;2022-07-29T10:14:48;28.10;80.60
7600;DHT22;3841;49.442;11.126;2022-07-29T10:17:15;28.20;81.10
7600;DHT22;3841;49.442;11.126;2022-07-29T10:19:42;28.30;81.50
7600;DHT22;3841;49.442;11.126;2022-07-29T10:22:09;28.20;81.50
7600;DHT22;3841;49.442;11.126;2022-07-29T10:24:37;28.10;80.50
7600;DHT22;3841;49.442;11.126;2022-07-29T10:27:04;28.30;80.70
7600;DHT22;3841;49.442;11.126;2022-07-29T10:29:33;28.50;81.20
7600;DHT22;3841;49.442;11.126;2022-07-29T10:32:25;28.80;81.10
7600;DHT22;3841;49.442;11.126;2022-07-29T10:37:56;28.80;78.40
7600;DHT22;3841;49.442;11.126;2022-07-29T10:40:26;28.70;77.70
7600;DHT22;3841;49.442;11.126;2022-07-29T10:43:15;28.80;77.90
7600;DHT22;3841;49.442;11.126;2022-07-29T10:45:44;28.90;76.80
7600;DHT22;3841;49.442;11.126;2022-07-29T10:48:12;28.90;76.80
7600;DHT22;3841;49.442;11.126;2022-07-29T10:50:51;28.90;77.60
7600;DHT22;3841;49.442;11.126;2022-07-29T10:53:18;28.80;76.40
7600;DHT22;3841;49.442;11.126;2022-07-29T10:55:45;28.60;77.50
7600;DHT22;3841;49.442;11.126;2022-07-29T10:58:16;28.40;77.90
7600;DHT22;3841;49.442;11.126;2022-07-29T11:00:48;28.20;79.30
7600;DHT22;3841;49.442;11.126;2022-07-29T11:06:18;27.90;81.20
7600;DHT22;3841;49.442;11.126;2022-07-29T11:08:45;27.60;82.30
7600;DHT22;3841;49.442;11.126;2022-07-29T11:11:32;27.30;83.50
7600;DHT22;3841;49.442;11.126;2022-07-29T11:13:59;27.20;84.20
7600;DHT22;3841;49.442;11.126;2022-07-29T11:16:26;27.10;84.20
7600;DHT22;3841;49.442;11.126;2022-07-29T11:19:19;27.20;84.90
7600;DHT22;3841;49.442;11.126;2022-07-29T11:21:48;27.30;85.60
7600;DHT22;3841;49.442;11.126;2022-07-29T11:24:18;27.40;85.90
7600;DHT22;3841;49.442;11.126;2022-07-29T11:29:31;27.60;86.30
7600;DHT22;3841;49.442;11.126;2022-07-29T11:32:07;27.50;85.80
7600;DHT22;3841;49.442;11.126;2022-07-29T11:34:35;27.60;86.00
7600;DHT22;3841;49.442;11.126;2022-07-29T11:37:17;27.60;86.60
7600;DHT22;3841;49.442;11.126;2022-07-29T11:39:44;27.60;86.00
7600;DHT22;3841;49.442;11.126;2022-07-29T11:45:00;27.60;85.90
7600;DHT22;3841;49.442;11.126;2022-07-29T11:47:27;27.50;85.70
7600;DHT22;3841;49.442;11.126;2022-07-29T11:49:54;27.50;86.50
7600;DHT22;3841;49.442;11.126;2022-07-29T11:52:23;27.80;85.80
7600;DHT22;3841;49.442;11.126;2022-07-29T11:54:50;28.10;85.50
7600;DHT22;3841;49.442;11.126;2022-07-29T11:57:23;28.30;84.40
7600;DHT22;3841;49.442;11.126;2022-07-29T11:59:50;28.60;84.20
7600;DHT22;3841;49.442;11.126;2022-07-29T12:02:17;28.70;82.90
7600;DHT22;3841;49.442;11.126;2022-07-29T12:04:47;28.80;83.30
7600;DHT22;3841;49.442;11.126;2022-07-29T12:07:14;28.90;82.50
7600;DHT22;3841;49.442;11.126;2022-07-29T12:09:47;28.80;82.40
7600;DHT22;3841;49.442;11.126;2022-07-29T12:12:15;28.90;82.20
7600;DHT22;3841;49.442;11.126;2022-07-29T12:14:42;28.90;81.70
7600;DHT22;3841;49.442;11.126;2022-07-29T12:17:24;29.00;81.50
7600;DHT22;3841;49.442;11.126;2022-07-29T12:19:51;29.10;79.80
7600;DHT22;3841;49.442;11.126;2022-07-29T12:22:24;29.10;80.80
7600;DHT22;3841;49.442;11.126;2022-07-29T12:24:52;29.10;80.40
7600;DHT22;3841;49.442;11.126;2022-07-29T12:27:19;29.10;79.60
7600;DHT22;3841;49.442;11.126;2022-07-29T12:29:54;29.00;79.20
7600;DHT22;3841;49.442;11.126;2022-07-29T12:32:21;28.80;78.50
7600;DHT22;3841;49.442;11.126;2022-07-29T12:34:48;28.80;78.50
7600;DHT22;3841;49.442;11.126;2022-07-29T12:37:14;28.80;78.70
7600;DHT22;3841;49.442;11.126;2022-07-29T12:39:41;29.00;79.40
7600;DHT22;3841;49.442;11.126;2022-07-29T12:44:47;29.10;76.30
7600;DHT22;3841;49.442;11.126;2022-07-29T12:47:14;29.10;76.50
7600;DHT22;3841;49.442;11.126;2022-07-29T12:49:41;29.10;76.60
7600;DHT22;3841;49.442;11.126;2022-07-29T12:52:24;29.10;76.30
7600;DHT22;3841;49.442;11.126;2022-07-29T12:54:50;29.10;76.00
7600;DHT22;3841;49.442;11.126;2022-07-29T12:57:18;29.00;76.80
7600;DHT22;3841;49.442;11.126;2022-07-29T12:59:44;29.00;76.70
7600;DHT22;3841;49.442;11.126;2022-07-29T13:02:21;29.00;77.00
7600;DHT22;3841;49.442;11.126;2022-07-29T13:04:54;29.10;78.50
7600;DHT22;3841;49.442;11.126;2022-07-29T13:07:23;29.00;79.20
7600;DHT22;3841;49.442;11.126;2022-07-29T13:09:50;28.80;79.30
7600;DHT22;3841;49.442;11.126;2022-07-29T13:12:17;28.70;79.60
7600;DHT22;3841;49.442;11.126;2022-07-29T13:14:44;28.60;79.90
7600;DHT22;3841;49.442;11.126;2022-07-29T13:17:11;28.70;79.80
7600;DHT22;3841;49.442;11.126;2022-07-29T13:19:41;28.90;79.30
7600;DHT22;3841;49.442;11.126;2022-07-29T13:22:07;29.10;84.10
7600;DHT22;3841;49.442;11.126;2022-07-29T13:24:44;29.10;87.80
7600;DHT22;3841;49.442;11.126;2022-07-29T13:27:11;29.00;87.80
7600;DHT22;3841;49.442;11.126;2022-07-29T13:29:37;28.80;91.40
7600;DHT22;3841;49.442;11.126;2022-07-29T13:32:05;28.50;90.30
7600;DHT22;3841;49.442;11.126;2022-07-29T13:34:32;28.10;88.30
7600;DHT22;3841;49.442;11.126;2022-07-29T13:37:00;27.70;87.50
7600;DHT22;3841;49.442;11.126;2022-07-29T13:39:27;27.40;88.60
7600;DHT22;3841;49.442;11.126;2022-07-29T13:41:54;27.10;89.10
7600;DHT22;3841;49.442;11.126;2022-07-29T13:44:21;26.80;90.10
7600;DHT22;3841;49.442;11.126;2022-07-29T13:46:47;26.50;90.40
7600;DHT22;3841;49.442;11.126;2022-07-29T13:49:15;26.20;91.00
7600;DHT22;3841;49.442;11.126;2022-07-29T13:51:41;25.90;91.00
7600;DHT22;3841;49.442;11.126;2022-07-29T13:54:09;25.70;91.60
7600;DHT22;3841;49.442;11.126;2022-07-29T13:56:36;25.60;91.90
7600;DHT22;3841;49.442;11.126;2022-07-29T13:59:03;25.50;91.90
7600;DHT22;3841;49.442;11.126;2022-07-29T14:01:34;25.30;92.30
7600;DHT22;3841;49.442;11.126;2022-07-29T14:04:06;25.20;92.80
7600;DHT22;3841;49.442;11.126;2022-07-29T14:06:33;25.10;93.50
7600;DHT22;3841;49.442;11.126;2022-07-29T14:09:00;25.00;94.60
7600;DHT22;3841;49.442;11.126;2022-07-29T14:11:29;24.90;96.40
7600;DHT22;3841;49.442;11.126;2022-07-29T14:13:55;25.00;98.20
7600;DHT22;3841;49.442;11.126;2022-07-29T14:16:22;24.90;98.90
7600;DHT22;3841;49.442;11.126;2022-07-29T14:18:48;24.90;99.90
7600;DHT22;3841;49.442;11.126;2022-07-29T14:21:15;24.90;99.90
7600;DHT22;3841;49.442;11.126;2022-07-29T14:23:42;24.80;99.90
7600;DHT22;3841;49.442;11.126;2022-07-29T14:26:08;24.80;99.90
7600;DHT22;3841;49.442;11.126;2022-07-29T14:28:36;24.80;99.90
7600;DHT22;3841;49.442;11.126;2022-07-29T14:31:03;24.80;99.90
7600;DHT22;3841;49.442;11.126;2022-07-29T14:33:29;24.80;99.90
7600;DHT22;3841;49.442;11.126;2022-07-29T14:35:56;24.80;99.90
7600;DHT22;3841;49.442;11.126;2022-07-29T14:38:23;24.80;99.90
7600;DHT22;3841;49.442;11.126;2022-07-29T14:40:50;24.80;99.90
7600;DHT22;3841;49.442;11.126;2022-07-29T14:43:17;24.90;99.90
7600;DHT22;3841;49.442;11.126;2022-07-29T14:45:45;24.90;99.90
7600;DHT22;3841;49.442;11.126;2022-07-29T14:48:11;24.90;99.90
7600;DHT22;3841;49.442;11.126;2022-07-29T14:50:38;24.90;99.90
7600;DHT22;3841;49.442;11.126;2022-07-29T14:53:05;24.90;99.90
7600;DHT22;3841;49.442;11.126;2022-07-29T14:55:31;24.90;99.90
7600;DHT22;3841;49.442;11.126;2022-07-29T14:57:58;24.90;99.90
7600;DHT22;3841;49.442;11.126;2022-07-29T15:00:25;24.80;99.90
7600;DHT22;3841;49.442;11.126;2022-07-29T15:02:53;24.70;99.90
7600;DHT22;3841;49.442;11.126;2022-07-29T15:05:20;24.50;99.90
7600;DHT22;3841;49.442;11.126;2022-07-29T15:07:54;24.30;99.90
7600;DHT22;3841;49.442;11.126;2022-07-29T15:10:24;24.10;99.90
7600;DHT22;3841;49.442;11.126;2022-07-29T15:12:51;24.10;99.90
7600;DHT22;3841;49.442;11.126;2022-07-29T15:15:18;24.10;99.90
7600;DHT22;3841;49.442;11.126;2022-07-29T15:17:44;24.10;99.90
7600;DHT22;3841;49.442;11.126;2022-07-29T15:20:12;24.10;99.90
7600;DHT22;3841;49.442;11.126;2022-07-29T15:22:39;24.10;99.90
7600;DHT22;3841;49.442;11.126;2022-07-29T15:25:07;24.10;99.90
7600;DHT22;3841;49.442;11.126;2022-07-29T15:27:34;24.00;99.90
7600;DHT22;3841;49.442;11.126;2022-07-29T15:30:00;23.90;99.90
7600;DHT22;3841;49.442;11.126;2022-07-29T15:32:27;23.70;99.90
7600;DHT22;3841;49.442;11.126;2022-07-29T15:34:54;23.50;99.90
7600;DHT22;3841;49.442;11.126;2022-07-29T15:37:22;23.20;99.90
7600;DHT22;3841;49.442;11.126;2022-07-29T15:39:48;23.00;99.90
7600;DHT22;3841;49.442;11.126;2022-07-29T15:42:15;22.80;99.90
7600;DHT22;3841;49.442;11.126;2022-07-29T15:44:42;22.60;99.90
7600;DHT22;3841;49.442;11.126;2022-07-29T15:47:09;22.30;99.90
7600;DHT22;3841;49.442;11.126;2022-07-29T15:49:37;22.00;99.90
7600;DHT22;3841;49.442;11.126;2022-07-29T15:52:04;21.90;99.90
7600;DHT22;3841;49.442;11.126;2022-07-29T15:54:33;21.90;99.90
7600;DHT22;3841;49.442;11.126;2022-07-29T15:57:00;21.90;99.90
7600;DHT22;3841;49.442;11.126;2022-07-29T15:59:27;21.90;99.90
7600;DHT22;3841;49.442;11.126;2022-07-29T16:01:54;21.90;99.90
7600;DHT22;3841;49.442;11.126;2022-07-29T16:04:20;21.80;99.90
7600;DHT22;3841;49.442;11.126;2022-07-29T16:06:47;21.70;99.90